createdAt,value
2022-11-12T00:00:22.522Z,4.8
2022-11-12T00:01:31.276Z,3.5
2022-11-12T00:02:41.009Z,4.4
2022-11-12T00:03:48.841Z,4.4
2022-11-12T00:04:58.599Z,4.3
2022-11-12T00:06:07.314Z,4.4
2022-11-12T00:07:16.235Z,5.5
2022-11-12T00:08:26.164Z,4.2
2022-11-12T00:09:35.599Z,4.6
2022-11-12T00:10:44.358Z,3.9
2022-11-12T00:11:54.126Z,4.2
2022-11-12T00:13:03.854Z,3.7
2022-11-12T00:14:12.603Z,4.1
2022-11-12T00:15:22.383Z,4.4
2022-11-12T00:16:32.199Z,3.6
2022-11-12T00:17:41.936Z,3.4
2022-11-12T00:18:51.627Z,3.5
2022-11-12T00:20:00.358Z,4.2
2022-11-12T00:21:10.114Z,3.7
2022-11-12T00:22:19.966Z,3.3
2022-11-12T00:23:29.619Z,3.2
2022-11-12T00:24:39.385Z,2.9
2022-11-12T00:25:49.157Z,3.5
2022-11-12T00:26:57.875Z,3.6
2022-11-12T00:28:07.615Z,3.3
2022-11-12T00:29:15.383Z,3.5
2022-11-12T00:30:24.058Z,3.7
2022-11-12T00:31:33.841Z,3.3
2022-11-12T00:32:42.552Z,3.7
2022-11-12T00:33:52.331Z,4
2022-11-12T00:35:02.703Z,3.9
2022-11-12T00:36:09.738Z,4
2022-11-12T00:37:19.447Z,4
2022-11-12T00:38:28.524Z,3.9
2022-11-12T00:39:37.965Z,3
2022-11-12T00:40:47.708Z,2.9
2022-11-12T00:41:55.471Z,3.2
2022-11-12T00:43:06.258Z,2.6
2022-11-12T00:44:16.005Z,3.1
2022-11-12T00:45:24.738Z,3.3
2022-11-12T00:46:34.507Z,2.8
2022-11-12T00:47:43.246Z,3.1
2022-11-12T00:48:53.207Z,3.6
2022-11-12T00:50:01.880Z,3.1
2022-11-12T00:51:10.617Z,3.6
2022-11-12T00:52:20.328Z,3
2022-11-12T00:53:28.035Z,2.9
2022-11-12T00:54:36.931Z,2.4
2022-11-12T00:55:46.522Z,3
2022-11-12T00:56:57.278Z,2.9
2022-11-12T00:58:07.033Z,2.5
2022-11-12T00:59:16.703Z,3
2022-11-12T01:00:24.403Z,2.7
2022-11-12T01:01:34.173Z,3.2
2022-11-12T01:02:47.833Z,2.7
2022-11-12T01:03:53.597Z,2.4
2022-11-12T01:05:03.274Z,2.4
2022-11-12T01:06:11.007Z,2.6
2022-11-12T01:07:20.742Z,2.4
2022-11-12T01:08:30.701Z,2.6
2022-11-12T01:09:40.395Z,2.8
2022-11-12T01:10:49.998Z,3.1
2022-11-12T01:11:58.665Z,2.7
2022-11-12T01:13:08.351Z,2.9
2022-11-12T01:14:18.089Z,3.1
2022-11-12T01:15:26.863Z,2.4
2022-11-12T01:16:36.561Z,3.3
2022-11-12T01:17:46.269Z,2.5
2022-11-12T01:18:55.974Z,2.5
2022-11-12T01:20:05.683Z,3.2
2022-11-12T01:21:14.388Z,2.6
2022-11-12T01:22:24.127Z,3.1
2022-11-12T01:23:32.884Z,3.1
2022-11-12T01:24:42.750Z,2.5
2022-11-12T01:25:52.343Z,3.3
2022-11-12T01:27:01.018Z,3
2022-11-12T01:28:08.743Z,2.8
2022-11-12T01:29:18.434Z,2.7
2022-11-12T01:30:26.132Z,2.7
2022-11-12T01:31:35.996Z,2.4
2022-11-12T01:32:45.746Z,2.5
2022-11-12T01:33:53.434Z,2.7
2022-11-12T01:35:03.125Z,2.9
2022-11-12T01:36:11.947Z,2.4
2022-11-12T01:37:19.638Z,2.6
2022-11-12T01:38:29.511Z,2.8
2022-11-12T01:39:37.045Z,3
2022-11-12T01:40:46.891Z,2.9
2022-11-12T01:41:56.503Z,3.1
2022-11-12T01:43:04.268Z,3.1
2022-11-12T01:44:14.019Z,3.7
2022-11-12T01:45:23.689Z,3.2
2022-11-12T01:46:31.388Z,3
2022-11-12T01:47:41.100Z,2.8
2022-11-12T01:48:49.902Z,2.9
2022-11-12T01:49:58.614Z,3.2
2022-11-12T01:51:08.309Z,3
2022-11-12T01:52:16.016Z,2.7
2022-11-12T01:53:25.800Z,3
2022-11-12T01:54:34.535Z,2.2
2022-11-12T01:55:42.270Z,2.5
2022-11-12T01:56:52.110Z,2.8
2022-11-12T02:13:01.207Z,3.9
2022-11-12T02:14:10.801Z,3.4
2022-11-12T02:15:18.481Z,3
2022-11-12T02:16:27.164Z,3.5
2022-11-12T02:17:36.884Z,2.9
2022-11-12T02:18:44.717Z,3.1
2022-11-12T02:19:52.402Z,3.4
2022-11-12T02:21:01.069Z,2.9
2022-11-12T02:22:10.742Z,3
2022-11-12T02:23:20.426Z,2.9
2022-11-12T02:24:30.147Z,3
2022-11-12T02:25:36.910Z,3.4
2022-11-12T02:26:51.673Z,2.7
2022-11-12T02:28:01.355Z,2.9
2022-11-12T02:29:11.149Z,3.3
2022-11-12T02:30:19.723Z,2.6
2022-11-12T02:31:29.398Z,2.9
2022-11-12T02:32:38.064Z,2.3
2022-11-12T02:33:45.776Z,3.1
2022-11-12T02:34:54.459Z,3.2
2022-11-12T02:36:02.244Z,3.4
2022-11-12T02:37:10.911Z,3.3
2022-11-12T02:38:20.579Z,3.2
2022-11-12T02:39:29.271Z,2.7
2022-11-12T02:40:38.963Z,3.7
2022-11-12T02:41:46.650Z,3.1
2022-11-12T02:42:54.324Z,3.7
2022-11-12T02:44:03.996Z,3.6
2022-11-12T02:45:11.787Z,3.5
2022-11-12T02:46:19.365Z,2.8
2022-11-12T02:47:29.091Z,3.3
2022-11-12T02:48:38.854Z,3.6
2022-11-12T02:49:47.538Z,3.3
2022-11-12T02:50:56.190Z,3.7
2022-11-12T02:52:04.888Z,3.8
2022-11-12T02:53:14.587Z,3.3
2022-11-12T02:54:23.344Z,3.6
2022-11-12T02:55:32.015Z,3.5
2022-11-12T02:56:41.686Z,2.8
2022-11-12T02:57:50.094Z,3.9
2022-11-12T02:58:59.920Z,3.7
2022-11-12T03:00:08.589Z,3.5
2022-11-12T03:01:18.499Z,2.6
2022-11-12T03:02:28.014Z,2.7
2022-11-12T03:03:35.668Z,3.3
2022-11-12T03:04:49.230Z,3.3
2022-11-12T03:05:55.023Z,3.3
2022-11-12T03:07:03.866Z,3.1
2022-11-12T03:08:13.508Z,3.3
2022-11-12T03:09:22.170Z,3.4
2022-11-12T03:10:29.848Z,3
2022-11-12T03:11:38.508Z,2.9
2022-11-12T03:12:46.167Z,2.9
2022-11-12T03:13:54.885Z,3.2
2022-11-12T03:15:04.544Z,3.1
2022-11-12T03:16:12.244Z,3.1
2022-11-12T03:17:22.047Z,3
2022-11-12T03:18:31.611Z,2.6
2022-11-12T03:19:40.281Z,3.2
2022-11-12T03:20:48.947Z,3
2022-11-12T03:21:56.858Z,2.6
2022-11-12T03:23:05.526Z,2.4
2022-11-12T03:24:15.183Z,2.3
2022-11-12T03:25:24.970Z,2
2022-11-12T03:26:35.890Z,2.5
2022-11-12T03:27:42.344Z,2.2
2022-11-12T03:28:50.025Z,2.2
2022-11-12T03:29:59.751Z,2
2022-11-12T03:31:07.416Z,2.1
2022-11-12T03:32:17.082Z,2.3
2022-11-12T03:33:27.012Z,2
2022-11-12T03:34:35.558Z,2.4
2022-11-12T03:35:45.240Z,2.6
2022-11-12T03:36:53.900Z,2.1
2022-11-12T03:38:02.593Z,2.3
2022-11-12T03:39:12.273Z,2.1
2022-11-12T03:40:18.951Z,2.2
2022-11-12T03:41:27.625Z,2.3
2022-11-12T03:42:37.424Z,2.3
2022-11-12T03:43:45.117Z,1.7
2022-11-12T03:44:54.822Z,2.1
2022-11-12T03:46:03.482Z,1.9
2022-11-12T03:47:12.194Z,2
2022-11-12T03:48:21.860Z,2.2
2022-11-12T03:49:30.636Z,2
2022-11-12T03:50:40.206Z,2.4
2022-11-12T03:51:48.870Z,1.9
2022-11-12T03:52:56.538Z,2
2022-11-12T03:54:06.213Z,1.8
2022-11-12T03:55:14.875Z,1.8
2022-11-12T03:56:23.565Z,2.1
2022-11-12T03:57:33.231Z,1.9
2022-11-12T03:58:40.893Z,2.1
2022-11-12T03:59:49.568Z,2
2022-11-12T04:00:59.288Z,1.7
2022-11-12T04:02:06.948Z,1.9
2022-11-12T04:03:16.699Z,2
2022-11-12T04:04:25.357Z,2
2022-11-12T04:05:35.214Z,2
2022-11-12T04:06:44.729Z,2
2022-11-12T04:07:53.375Z,2.3
2022-11-12T04:09:02.054Z,2
2022-11-12T04:10:11.748Z,2
2022-11-12T04:11:20.436Z,1.8
2022-11-12T04:12:30.145Z,1.8
2022-11-12T04:13:38.840Z,1.3
2022-11-12T04:14:46.567Z,1.6
2022-11-12T04:15:56.247Z,1.6
2022-11-12T04:17:05.933Z,2
2022-11-12T04:18:14.620Z,1.7
2022-11-12T04:19:24.325Z,1.3
2022-11-12T04:20:32.989Z,1.6
2022-11-12T04:21:42.767Z,1.5
2022-11-12T04:22:51.355Z,1.7
2022-11-12T04:24:01.047Z,1.5
2022-11-12T04:25:09.871Z,1.4
2022-11-12T04:26:19.539Z,1.7
2022-11-12T04:27:29.215Z,1.5
2022-11-12T04:28:37.882Z,1.8
2022-11-12T04:29:46.552Z,2.2
2022-11-12T04:30:56.301Z,1.7
2022-11-12T04:32:04.967Z,2.1
2022-11-12T04:33:14.634Z,2
2022-11-12T04:34:23.346Z,1.6
2022-11-12T04:35:31.966Z,1.4
2022-11-12T04:36:41.654Z,2.1
2022-11-12T04:37:50.447Z,1.8
2022-11-12T04:38:58.995Z,2.1
2022-11-12T04:40:08.670Z,1.4
2022-11-12T04:41:16.341Z,1.8
2022-11-12T04:42:26.037Z,1.6
2022-11-12T04:43:34.710Z,1.4
2022-11-12T04:44:43.407Z,1.7
2022-11-12T04:45:53.085Z,1.7
2022-11-12T04:47:00.742Z,1.7
2022-11-12T04:48:10.432Z,1.6
2022-11-12T04:49:20.105Z,1.8
2022-11-12T04:50:27.762Z,1.8
2022-11-12T04:51:37.430Z,1.9
2022-11-12T04:52:46.119Z,1.6
2022-11-12T04:53:56.028Z,1.5
2022-11-12T04:55:05.591Z,1.6
2022-11-12T04:56:14.265Z,1.2
2022-11-12T04:57:22.957Z,1.4
2022-11-12T04:58:32.619Z,1.4
2022-11-12T04:59:42.302Z,2
2022-11-12T05:00:52.096Z,1.8
2022-11-12T05:02:00.689Z,1.6
2022-11-12T05:03:10.381Z,1.6
2022-11-12T05:04:20.056Z,1.6
2022-11-12T05:05:33.554Z,1.6
2022-11-12T05:06:38.454Z,2
2022-11-12T05:07:48.085Z,2.1
2022-11-12T05:08:56.757Z,2
2022-11-12T05:10:06.584Z,2
2022-11-12T05:11:16.146Z,1.7
2022-11-12T05:12:24.825Z,1.8
2022-11-12T05:13:34.527Z,1.8
2022-11-12T05:14:43.270Z,1.7
2022-11-12T05:15:51.939Z,2.1
2022-11-12T05:17:00.636Z,1.6
2022-11-12T05:18:08.370Z,1.5
2022-11-12T05:19:18.060Z,2.4
2022-11-12T05:20:26.728Z,1.7
2022-11-12T05:21:40.670Z,1.6
2022-11-12T05:22:59.328Z,1.7
2022-11-12T05:23:57.821Z,1.5
2022-11-12T05:25:06.565Z,2
2022-11-12T05:26:16.350Z,1.9
2022-11-12T05:27:24.901Z,1.8
2022-11-12T05:28:34.739Z,1.6
2022-11-12T05:29:43.485Z,1.9
2022-11-12T05:30:51.250Z,1.7
2022-11-12T05:32:00.944Z,2
2022-11-12T05:33:08.592Z,1.6
2022-11-12T05:34:22.699Z,2.1
2022-11-12T05:35:28.954Z,1.7
2022-11-12T05:36:36.630Z,2.1
2022-11-12T05:37:46.322Z,1.8
2022-11-12T05:38:55.985Z,1.7
2022-11-12T05:40:03.670Z,2
2022-11-12T05:41:16.025Z,1.7
2022-11-12T05:42:21.219Z,1.8
2022-11-12T05:43:30.761Z,1.7
2022-11-12T05:44:40.428Z,1.9
2022-11-12T05:45:49.141Z,1.8
2022-11-12T05:46:58.906Z,1.7
2022-11-12T05:48:07.585Z,1.9
2022-11-12T05:49:17.267Z,1.9
2022-11-12T05:50:34.780Z,1.9
2022-11-12T05:51:35.649Z,1.8
2022-11-12T05:52:44.321Z,1.9
2022-11-12T05:53:54.027Z,2.3
2022-11-12T05:55:01.689Z,2.1
2022-11-12T05:56:11.373Z,1.6
2022-11-12T05:57:20.060Z,2.1
2022-11-12T05:58:29.846Z,1.9
2022-11-12T05:59:39.427Z,2.4
2022-11-12T06:00:47.116Z,1.6
2022-11-12T06:01:56.828Z,2.1
2022-11-12T06:03:06.547Z,2.1
2022-11-12T06:04:14.259Z,2.2
2022-11-12T06:05:23.959Z,1.9
2022-11-12T06:06:32.631Z,1.9
2022-11-12T06:07:41.323Z,1.5
2022-11-12T06:08:51.024Z,2.2
2022-11-12T06:10:00.048Z,1.7
2022-11-12T06:11:09.734Z,2
2022-11-12T06:12:19.436Z,1.8
2022-11-12T06:13:27.114Z,1.8
2022-11-12T06:14:36.957Z,1.9
2022-11-12T06:15:46.577Z,2.1
2022-11-12T06:16:56.252Z,1.8
2022-11-12T06:18:05.923Z,2
2022-11-12T06:19:14.588Z,1.9
2022-11-12T06:20:24.281Z,2.2
2022-11-12T06:21:31.952Z,2.1
2022-11-12T06:22:40.635Z,1.8
2022-11-12T06:23:50.315Z,1.6
2022-11-12T06:24:58.006Z,2.5
2022-11-12T06:26:07.799Z,1.9
2022-11-12T06:27:16.482Z,1.8
2022-11-12T06:28:24.381Z,2.3
2022-11-12T06:29:33.884Z,2.3
2022-11-12T06:30:43.671Z,1.9
2022-11-12T06:31:52.314Z,2
2022-11-12T06:33:00.999Z,1.4
2022-11-12T06:34:08.714Z,2
2022-11-12T06:35:18.446Z,1.8
2022-11-12T06:36:27.121Z,1.6
2022-11-12T06:37:34.780Z,1.3
2022-11-12T06:38:44.442Z,1.9
2022-11-12T06:39:52.117Z,2.1
2022-11-12T06:41:01.801Z,1.8
2022-11-12T06:42:11.482Z,2.2
2022-11-12T06:43:19.170Z,2.7
2022-11-12T06:44:28.867Z,2
2022-11-12T06:45:38.546Z,2.2
2022-11-12T06:46:47.372Z,2.5
2022-11-12T06:47:57.018Z,2
2022-11-12T06:49:06.808Z,3.2
2022-11-12T06:50:14.493Z,2.7
2022-11-12T06:51:23.186Z,2.7
2022-11-12T06:52:31.918Z,2.8
2022-11-12T06:53:40.617Z,2.6
2022-11-12T06:54:50.322Z,2.2
2022-11-12T06:55:59.031Z,2.7
2022-11-12T06:57:08.702Z,3.3
2022-11-12T06:58:18.395Z,2.4
2022-11-12T06:59:26.050Z,3.1
2022-11-12T07:00:35.737Z,2.8
2022-11-12T07:01:43.444Z,3.4
2022-11-12T07:02:53.197Z,2.9
2022-11-12T07:04:01.822Z,2.8
2022-11-12T07:05:10.492Z,2.3
2022-11-12T07:06:20.181Z,2.7
2022-11-12T07:07:28.875Z,2.9
2022-11-12T07:08:37.525Z,2.9
2022-11-12T07:09:47.219Z,4.4
2022-11-12T07:10:54.904Z,3.4
2022-11-12T07:12:04.592Z,3
2022-11-12T07:13:14.272Z,3.1
2022-11-12T07:14:22.037Z,3.4
2022-11-12T07:15:31.734Z,3.1
2022-11-12T07:16:40.412Z,3.6
2022-11-12T07:17:48.106Z,3.2
2022-11-12T07:18:57.945Z,3.1
2022-11-12T07:20:07.499Z,3.3
2022-11-12T07:21:16.174Z,3
2022-11-12T07:22:25.849Z,3.9
2022-11-12T07:23:33.566Z,3.2
2022-11-12T07:24:43.239Z,3.2
2022-11-12T07:25:52.958Z,3.5
2022-11-12T07:27:00.645Z,3.1
2022-11-12T07:28:10.343Z,2.8
2022-11-12T07:29:30.415Z,3.7
2022-11-12T07:30:29.787Z,4.1
2022-11-12T07:31:39.477Z,3.4
2022-11-12T07:32:51.895Z,3.1
2022-11-12T07:33:59.846Z,3.6
2022-11-12T07:35:09.764Z,3
2022-11-12T07:36:18.327Z,3.3
2022-11-12T07:37:26.996Z,3.1
2022-11-12T07:38:34.670Z,2.7
2022-11-12T07:39:43.352Z,3.1
2022-11-12T07:40:53.067Z,3
2022-11-12T07:42:00.751Z,3.1
2022-11-12T07:43:10.438Z,4.1
2022-11-12T07:44:19.105Z,3.1
2022-11-12T07:45:26.796Z,3.2
2022-11-12T07:46:36.616Z,3.5
2022-11-12T07:47:46.319Z,3.5
2022-11-12T07:48:55.079Z,3.9
2022-11-12T07:50:04.765Z,3.5
2022-11-12T07:51:14.571Z,3.6
2022-11-12T07:52:24.167Z,3.4
2022-11-12T07:53:32.822Z,2.9
2022-11-12T07:54:41.532Z,4.3
2022-11-12T07:55:52.248Z,3.9
2022-11-12T07:57:01.923Z,3.7
2022-11-12T07:58:10.618Z,3.5
2022-11-12T07:59:20.280Z,3.3
2022-11-12T08:00:28.977Z,3.2
2022-11-12T08:01:36.662Z,3.4
2022-11-12T08:02:46.310Z,3.2
2022-11-12T08:03:55.020Z,3.6
2022-11-12T08:05:08.569Z,4
2022-11-12T08:06:13.371Z,3.3
2022-11-12T08:07:23.275Z,2.9
2022-11-12T08:08:32.732Z,3.2
2022-11-12T08:09:41.433Z,3.5
2022-11-12T08:10:50.121Z,3
2022-11-12T08:11:59.882Z,3.1
2022-11-12T08:13:08.576Z,2.9
2022-11-12T08:14:18.241Z,3.1
2022-11-12T08:15:26.941Z,2.8
2022-11-12T08:16:34.609Z,3.3
2022-11-12T08:17:44.280Z,3.1
2022-11-12T08:18:51.978Z,2.5
2022-11-12T08:20:01.683Z,2.8
2022-11-12T08:21:11.380Z,2.3
2022-11-12T08:22:20.051Z,2.8
2022-11-12T08:23:29.834Z,3.6
2022-11-12T08:24:38.399Z,3.8
2022-11-12T08:25:47.061Z,3.1
2022-11-12T08:26:56.810Z,2.7
2022-11-12T08:28:04.481Z,3.1
2022-11-12T08:29:14.144Z,3
2022-11-12T08:30:23.831Z,2.9
2022-11-12T08:31:31.542Z,3
2022-11-12T08:32:41.349Z,3
2022-11-12T08:33:50.009Z,3.1
2022-11-12T08:34:58.734Z,3
2022-11-12T08:36:08.407Z,3.4
2022-11-12T08:37:16.078Z,3.2
2022-11-12T08:38:26.222Z,3.5
2022-11-12T08:39:35.685Z,3.2
2022-11-12T08:40:44.250Z,3.3
2022-11-12T08:41:53.913Z,3.7
2022-11-12T08:43:01.585Z,3.4
2022-11-12T08:44:11.253Z,3.2
2022-11-12T08:45:20.919Z,2.8
2022-11-12T08:46:28.628Z,2
2022-11-12T08:47:38.267Z,2.6
2022-11-12T08:48:47.938Z,2.5
2022-11-12T08:49:56.630Z,3
2022-11-12T08:51:06.305Z,3.5
2022-11-12T08:52:14.966Z,2.6
2022-11-12T08:53:23.630Z,2.7
2022-11-12T08:54:33.303Z,2.5
2022-11-12T08:55:43.115Z,2.6
2022-11-12T08:56:52.656Z,3.1
2022-11-12T08:58:02.333Z,2.5
2022-11-12T08:59:09.962Z,2.7
2022-11-12T09:00:19.639Z,2.7
2022-11-12T09:01:28.366Z,2.5
2022-11-12T09:02:36.989Z,2.5
2022-11-12T09:03:46.649Z,3.1
2022-11-12T09:04:55.305Z,2.9
2022-11-12T09:06:04.965Z,2.8
2022-11-12T09:07:35.680Z,3.3
2022-11-12T09:08:23.344Z,2.7
2022-11-12T09:09:33.006Z,4
2022-11-12T09:10:42.656Z,10.1
2022-11-12T09:11:52.451Z,3.2
2022-11-12T09:13:02.023Z,3.3
2022-11-12T09:14:09.707Z,2.8
2022-11-12T09:16:27.966Z,2.3
2022-11-12T09:17:35.676Z,2.5
2022-11-12T09:18:45.371Z,2.5
2022-11-12T09:19:53.018Z,2.5
2022-11-12T09:21:02.718Z,2.5
2022-11-12T09:22:12.431Z,3.1
2022-11-12T09:23:19.086Z,2.8
2022-11-12T09:24:28.818Z,2.5
2022-11-12T09:25:37.498Z,2.8
2022-11-12T09:26:46.157Z,3
2022-11-12T09:27:55.937Z,3.5
2022-11-12T09:29:04.498Z,3.8
2022-11-12T09:30:14.175Z,3.2
2022-11-12T09:31:23.823Z,3.7
2022-11-12T09:32:32.505Z,3.1
2022-11-12T09:33:42.354Z,3.3
2022-11-12T09:34:51.015Z,3
2022-11-12T09:35:59.861Z,3.3
2022-11-12T09:37:09.519Z,3.3
2022-11-12T09:38:19.195Z,3.5
2022-11-12T09:39:27.870Z,3.6
2022-11-12T09:40:37.549Z,3.5
2022-11-12T09:41:46.266Z,3.6
2022-11-12T09:42:56.013Z,3.6
2022-11-12T09:44:05.957Z,3.1
2022-11-12T09:45:13.501Z,3
2022-11-12T09:46:30.263Z,3
2022-11-12T09:47:32.897Z,3.1
2022-11-12T09:48:42.569Z,3.3
2022-11-12T09:49:52.224Z,3.7
2022-11-12T09:51:00.893Z,3.8
2022-11-12T09:52:10.548Z,2.8
2022-11-12T09:53:19.242Z,3.4
2022-11-12T09:54:27.914Z,3.4
2022-11-12T09:55:37.591Z,3.6
2022-11-12T09:56:45.258Z,3.7
2022-11-12T09:57:54.923Z,4
2022-11-12T09:59:04.602Z,2.7
2022-11-12T10:00:14.405Z,3.1
2022-11-12T10:01:24.035Z,2.8
2022-11-12T10:02:32.629Z,2.5
2022-11-12T10:03:41.308Z,3.3
2022-11-12T10:04:51.013Z,3.3
2022-11-12T10:05:59.687Z,3.8
2022-11-12T10:07:08.427Z,3.2
2022-11-12T10:08:18.057Z,3
2022-11-12T10:09:26.719Z,2.9
2022-11-12T10:10:36.432Z,2.9
2022-11-12T10:11:44.115Z,3.4
2022-11-12T10:12:51.776Z,2.8
2022-11-12T10:14:01.440Z,2.5
2022-11-12T10:15:10.182Z,2.9
2022-11-12T10:16:20.020Z,2.9
2022-11-12T10:17:26.564Z,3.2
2022-11-12T10:18:36.416Z,3
2022-11-12T10:19:45.935Z,3.7
2022-11-12T10:20:54.589Z,3.3
2022-11-12T10:22:04.317Z,3
2022-11-12T10:23:13.247Z,2.9
2022-11-12T10:24:20.992Z,3.4
2022-11-12T10:25:30.657Z,3.5
2022-11-12T10:26:38.309Z,3
2022-11-12T10:27:46.988Z,2.9
2022-11-12T10:28:56.653Z,2.7
2022-11-12T10:30:04.332Z,2.7
2022-11-12T10:31:13.999Z,2.8
2022-11-12T10:32:23.785Z,2.2
2022-11-12T10:33:31.331Z,2.9
2022-11-12T10:34:41.006Z,2.7
2022-11-12T10:35:48.648Z,2.7
2022-11-12T10:36:57.296Z,2.7
2022-11-12T10:38:06.976Z,2.8
2022-11-12T10:39:15.697Z,2.4
2022-11-12T10:40:25.366Z,3.5
2022-11-12T10:41:34.017Z,2.5
2022-11-12T10:42:42.673Z,2.9
2022-11-12T10:43:52.330Z,2.6
2022-11-12T10:45:01.056Z,2.8
2022-11-12T10:46:10.745Z,2.9
2022-11-12T10:47:20.400Z,3
2022-11-12T10:48:30.856Z,3.1
2022-11-12T10:49:40.717Z,2.6
2022-11-12T10:50:50.530Z,2.7
2022-11-12T10:51:59.192Z,2.8
2022-11-12T10:53:08.870Z,3
2022-11-12T10:54:16.527Z,2.7
2022-11-12T10:55:25.207Z,2.5
2022-11-12T10:56:34.890Z,3
2022-11-12T10:57:44.553Z,3
2022-11-12T10:58:54.241Z,2.9
2022-11-12T11:00:03.938Z,3.1
2022-11-12T11:01:11.611Z,3.1
2022-11-12T11:02:21.383Z,3.2
2022-11-12T11:03:29.019Z,2.8
2022-11-12T11:04:38.862Z,3
2022-11-12T11:05:48.443Z,3.3
2022-11-12T11:06:56.127Z,2.9
2022-11-12T11:08:05.777Z,2.7
2022-11-12T11:09:14.420Z,2.7
2022-11-12T11:10:23.081Z,2.9
2022-11-12T11:11:32.756Z,2.8
2022-11-12T11:12:41.403Z,2.6
2022-11-12T11:13:55.336Z,2.4
2022-11-12T11:15:00.756Z,2.8
2022-11-12T11:16:09.429Z,2.6
2022-11-12T11:17:19.135Z,2.6
2022-11-12T11:18:26.951Z,2.6
2022-11-12T11:19:35.466Z,2.9
2022-11-12T11:20:45.267Z,2.1
2022-11-12T11:21:52.810Z,2.5
2022-11-12T11:23:02.481Z,2.7
2022-11-12T11:24:12.183Z,3
2022-11-12T11:25:20.836Z,3.6
2022-11-12T11:26:29.501Z,3
2022-11-12T11:27:38.165Z,2.9
2022-11-12T11:28:46.865Z,2.8
2022-11-12T11:29:56.526Z,3.1
2022-11-12T11:31:06.224Z,2.9
2022-11-12T11:32:16.059Z,2.9
2022-11-12T11:33:25.714Z,2.7
2022-11-12T11:34:34.356Z,3
2022-11-12T11:35:44.022Z,2.5
2022-11-12T11:36:52.814Z,2.5
2022-11-12T11:38:02.425Z,2.3
2022-11-12T11:39:12.085Z,2.7
2022-11-12T11:40:19.811Z,2.8
2022-11-12T11:41:29.516Z,2.6
2022-11-12T11:42:39.295Z,3
2022-11-12T11:43:46.993Z,3.1
2022-11-12T11:44:56.620Z,2.5
2022-11-12T11:46:05.273Z,2.7
2022-11-12T11:47:12.928Z,2.7
2022-11-12T11:48:22.647Z,3.1
2022-11-12T11:49:31.331Z,2.9
2022-11-12T11:50:40.998Z,2.7
2022-11-12T11:51:50.744Z,2.9
2022-11-12T11:53:00.502Z,2.7
2022-11-12T11:54:10.190Z,2.6
2022-11-12T11:55:18.916Z,3
2022-11-12T11:56:28.583Z,2.9
2022-11-12T11:57:38.247Z,2.9
2022-11-12T11:58:45.915Z,2.9
2022-11-12T11:59:54.613Z,3
2022-11-12T12:01:04.336Z,2.8
2022-11-12T12:02:12.033Z,2.5
2022-11-12T12:03:21.817Z,2.7
2022-11-12T12:04:31.494Z,2.5
2022-11-12T12:05:39.176Z,2.6
2022-11-12T12:06:49.429Z,2.5
2022-11-12T12:07:58.271Z,2.6
2022-11-12T12:09:08.218Z,2.5
2022-11-12T12:10:17.854Z,2.2
2022-11-12T12:11:25.541Z,2.7
2022-11-12T12:12:35.219Z,2.8
2022-11-12T12:13:43.954Z,2.7
2022-11-12T12:14:53.614Z,3
2022-11-12T12:16:03.295Z,2.1
2022-11-12T12:17:12.082Z,2.5
2022-11-12T12:18:20.956Z,2.4
2022-11-12T12:19:29.638Z,2.6
2022-11-12T12:20:38.300Z,2.3
2022-11-12T12:21:47.961Z,2
2022-11-12T12:22:55.865Z,2.4
2022-11-12T12:24:05.587Z,2.5
2022-11-12T12:25:15.427Z,2.8
2022-11-12T12:26:22.959Z,2.2
2022-11-12T12:27:32.646Z,2.4
2022-11-12T12:28:41.424Z,2.4
2022-11-12T12:29:50.136Z,2.5
2022-11-12T12:30:59.867Z,2.2
2022-11-12T12:32:08.581Z,2.7
2022-11-12T12:33:18.321Z,2.7
2022-11-12T12:34:28.018Z,2.7
2022-11-12T12:35:37.745Z,2.3
2022-11-12T12:36:47.414Z,2.3
2022-11-12T12:37:56.105Z,2.5
2022-11-12T12:39:04.789Z,2.3
2022-11-12T12:40:14.496Z,2.4
2022-11-12T12:41:24.399Z,2.2
2022-11-12T12:42:33.954Z,2.3
2022-11-12T12:43:42.633Z,2.7
2022-11-12T12:44:51.329Z,2.6
2022-11-12T12:46:01.051Z,2.5
2022-11-12T12:47:09.744Z,2.5
2022-11-12T12:48:18.439Z,2.4
2022-11-12T12:49:28.160Z,2.4
2022-11-12T12:50:35.843Z,2.3
2022-11-12T12:51:45.671Z,2.5
2022-11-12T12:52:55.336Z,2.7
2022-11-12T12:54:04.007Z,2.6
2022-11-12T12:55:13.689Z,2.2
2022-11-12T12:56:22.775Z,2.3
2022-11-12T12:57:31.675Z,2.8
2022-11-12T12:58:41.252Z,2.5
2022-11-12T12:59:49.953Z,2.6
2022-11-12T13:00:59.863Z,2.8
2022-11-12T13:02:08.368Z,2.6
2022-11-12T13:03:17.054Z,2.3
2022-11-12T13:04:26.749Z,2.9
2022-11-12T13:05:34.402Z,2.7
2022-11-12T13:06:43.225Z,2.3
2022-11-12T13:07:52.832Z,2.5
2022-11-12T13:09:00.533Z,2.3
2022-11-12T13:10:10.220Z,2.6
2022-11-12T13:11:19.911Z,2.6
2022-11-12T13:12:28.591Z,2.3
2022-11-12T13:13:38.434Z,2.7
2022-11-12T13:14:46.134Z,2.6
2022-11-12T13:15:55.774Z,2.9
2022-11-12T13:17:05.461Z,2.6
2022-11-12T13:18:17.252Z,2.6
2022-11-12T13:19:25.879Z,2.6
2022-11-12T13:20:34.774Z,2.9
2022-11-12T13:21:42.451Z,2.3
2022-11-12T13:22:52.112Z,2.7
2022-11-12T13:24:00.808Z,2
2022-11-12T13:25:09.469Z,3.1
2022-11-12T13:26:19.179Z,2.7
2022-11-12T13:27:26.835Z,2.7
2022-11-12T13:28:36.505Z,2.1
2022-11-12T13:29:45.305Z,2.3
2022-11-12T13:30:53.898Z,2.9
2022-11-12T13:32:03.608Z,2.2
2022-11-12T13:33:13.290Z,2.2
2022-11-12T13:34:20.946Z,2.9
2022-11-12T13:35:30.627Z,3
2022-11-12T13:36:39.279Z,2.7
2022-11-12T13:37:49.019Z,2.5
2022-11-12T13:39:00.607Z,2.8
2022-11-12T13:40:07.394Z,2.6
2022-11-12T13:41:17.028Z,2.1
2022-11-12T13:42:26.731Z,2.3
2022-11-12T13:43:36.430Z,2.3
2022-11-12T13:44:46.119Z,2
2022-11-12T13:45:55.940Z,2.7
2022-11-12T13:47:05.489Z,2.4
2022-11-12T13:48:14.189Z,2.6
2022-11-12T13:49:22.881Z,2.3
2022-11-12T13:50:35.245Z,2.7
2022-11-12T13:51:41.193Z,2.2
2022-11-12T13:52:49.893Z,2.4
2022-11-12T13:53:59.602Z,2.7
2022-11-12T13:55:08.400Z,2.5
2022-11-12T13:56:18.105Z,2.1
2022-11-12T13:57:26.777Z,2.5
2022-11-12T13:58:34.439Z,2.4
2022-11-12T13:59:44.112Z,2.4
2022-11-12T14:00:52.905Z,1.8
2022-11-12T14:02:01.650Z,2
2022-11-12T14:03:11.280Z,2.2
2022-11-12T14:04:20.937Z,2
2022-11-12T14:05:30.596Z,1.9
2022-11-12T14:06:40.348Z,2.2
2022-11-12T14:07:47.975Z,2.4
2022-11-12T14:08:57.663Z,2.4
2022-11-12T14:10:06.325Z,2.2
2022-11-12T14:11:16.011Z,2.2
2022-11-12T14:12:25.487Z,2.5
2022-11-12T14:13:35.183Z,2.1
2022-11-12T14:14:44.851Z,3.5
2022-11-12T14:15:53.557Z,2.3
2022-11-12T14:17:03.265Z,2.5
2022-11-12T14:18:13.087Z,2.3
2022-11-12T14:19:21.662Z,2
2022-11-12T14:20:31.327Z,1.9
2022-11-12T14:21:40.029Z,2.3
2022-11-12T14:22:48.693Z,2.1
2022-11-12T14:23:58.459Z,1.9
2022-11-12T14:25:06.149Z,2.3
2022-11-12T14:26:15.833Z,2
2022-11-12T14:27:24.600Z,2.1
2022-11-12T14:28:33.295Z,2.2
2022-11-12T14:29:43.887Z,2.1
2022-11-12T14:30:52.699Z,2.6
2022-11-12T14:32:01.400Z,2.4
2022-11-12T14:33:11.148Z,2.6
2022-11-12T14:34:20.987Z,2.2
2022-11-12T14:35:30.550Z,2.5
2022-11-12T14:36:40.321Z,2.3
2022-11-12T14:37:49.014Z,2.2
2022-11-12T14:38:58.693Z,2.5
2022-11-12T14:40:06.350Z,2.6
2022-11-12T14:41:15.077Z,2.8
2022-11-12T14:42:24.826Z,2.9
2022-11-12T14:43:33.476Z,2.5
2022-11-12T14:44:43.164Z,2.6
2022-11-12T14:45:52.851Z,2.2
2022-11-12T14:47:01.586Z,2.8
2022-11-12T14:48:11.257Z,3
2022-11-12T14:49:20.035Z,3.4
2022-11-12T14:50:28.812Z,2.9
2022-11-12T14:51:38.397Z,3.4
2022-11-12T14:52:46.086Z,2.9
2022-11-12T14:53:55.930Z,3.6
2022-11-12T14:55:04.887Z,3.1
2022-11-12T14:56:13.581Z,2.7
2022-11-12T14:57:24.264Z,2.6
2022-11-12T14:58:34.095Z,2.8
2022-11-12T14:59:43.840Z,2.5
2022-11-12T15:00:53.524Z,2.8
2022-11-12T15:03:13.912Z,2.5
2022-11-12T15:04:22.516Z,2.6
2022-11-12T15:05:32.359Z,2.6
2022-11-12T15:06:42.003Z,2.9
2022-11-12T15:07:49.608Z,2.4
2022-11-12T15:08:58.296Z,2.2
2022-11-12T15:10:08.006Z,2.6
2022-11-12T15:11:21.645Z,2.2
2022-11-12T15:12:28.359Z,3
2022-11-12T15:13:37.035Z,2.4
2022-11-12T15:14:45.745Z,2.4
2022-11-12T15:15:54.439Z,2.1
2022-11-12T15:17:03.107Z,2.7
2022-11-12T15:18:11.773Z,2.8
2022-11-12T15:19:21.491Z,2.8
2022-11-12T15:20:30.168Z,2.4
2022-11-12T15:21:40.073Z,2.5
2022-11-12T15:22:47.629Z,2.7
2022-11-12T15:23:56.373Z,2.6
2022-11-12T15:25:06.092Z,2.9
2022-11-12T15:26:15.752Z,2.8
2022-11-12T15:27:25.428Z,2.8
2022-11-12T15:28:35.131Z,2.2
2022-11-12T15:29:42.870Z,2.7
2022-11-12T15:30:52.668Z,2.6
2022-11-12T15:32:02.349Z,2.6
2022-11-12T15:33:12.037Z,3
2022-11-12T15:34:21.761Z,2.3
2022-11-12T15:35:29.449Z,2.6
2022-11-12T15:36:39.140Z,3.1
2022-11-12T15:37:48.936Z,2.6
2022-11-12T15:38:56.616Z,2.6
2022-11-12T15:40:06.305Z,2.7
2022-11-12T15:41:15.953Z,2.4
2022-11-12T15:42:24.626Z,2.9
2022-11-12T15:43:34.338Z,2.1
2022-11-12T15:44:43.016Z,2.2
2022-11-12T15:45:51.684Z,2.2
2022-11-12T15:47:01.340Z,2.3
2022-11-12T15:48:09.005Z,2.5
2022-11-12T15:49:18.690Z,2.7
2022-11-12T15:50:28.386Z,2.6
2022-11-12T15:51:36.062Z,2.7
2022-11-12T15:52:45.736Z,2.6
2022-11-12T15:53:55.520Z,2.6
2022-11-12T15:55:04.090Z,3
2022-11-12T15:56:13.817Z,3.2
2022-11-12T15:57:21.489Z,3.2
2022-11-12T15:58:31.202Z,2.6
2022-11-12T15:59:40.941Z,2.9
2022-11-12T16:00:48.650Z,3.4
2022-11-12T16:01:58.435Z,2.9
2022-11-12T16:03:06.109Z,3.2
2022-11-12T16:04:14.778Z,3
2022-11-12T16:05:24.459Z,3.3
2022-11-12T16:06:33.187Z,3.4
2022-11-12T16:07:42.950Z,2.7
2022-11-12T16:08:49.621Z,2.5
2022-11-12T16:09:59.465Z,3
2022-11-12T16:11:09.015Z,2.6
2022-11-12T16:12:17.727Z,2.7
2022-11-12T16:13:27.750Z,2.7
2022-11-12T16:14:36.178Z,2.7
2022-11-12T16:15:45.999Z,3.1